createdAt,value
2023-02-03T00:01:46.016Z,11.28
2023-02-03T00:04:12.489Z,11.67
2023-02-03T00:06:39.595Z,11.80
2023-02-03T00:09:06.099Z,11.79
2023-02-03T00:11:32.651Z,11.22
2023-02-03T00:13:59.329Z,11.81
2023-02-03T00:16:25.751Z,10.92
2023-02-03T00:18:52.185Z,11.58
2023-02-03T00:21:18.564Z,11.33
2023-02-03T00:23:44.901Z,11.96
2023-02-03T00:26:16.658Z,11.93
2023-02-03T00:28:43.256Z,11.07
2023-02-03T00:31:17.832Z,11.51
2023-02-03T00:33:44.325Z,11.59
2023-02-03T00:36:11.315Z,11.65
2023-02-03T00:38:37.693Z,11.59
2023-02-03T00:41:04.197Z,10.96
2023-02-03T00:43:30.666Z,11.28
2023-02-03T00:45:57.151Z,10.91
2023-02-03T00:48:23.529Z,11.54
2023-02-03T00:50:49.957Z,11.18
2023-02-03T00:53:16.356Z,11.86
2023-02-03T00:55:43.710Z,11.27
2023-02-03T00:58:10.248Z,11.47
2023-02-03T01:00:36.655Z,10.94
2023-02-03T01:03:03.328Z,11.52
2023-02-03T01:05:29.750Z,11.70
2023-02-03T01:07:56.147Z,11.85
2023-02-03T01:10:22.568Z,11.93
2023-02-03T01:12:48.953Z,11.70
2023-02-03T01:15:15.354Z,11.96
2023-02-03T01:17:41.731Z,11.77
2023-02-03T01:20:08.946Z,11.41
2023-02-03T01:22:35.325Z,11.78
2023-02-03T01:25:01.752Z,11.15
2023-02-03T01:27:28.060Z,11.91
2023-02-03T01:29:54.489Z,11.20
2023-02-03T01:32:20.986Z,11.72
2023-02-03T01:34:47.347Z,11.77
2023-02-03T01:37:17.049Z,11.33
2023-02-03T01:39:44.088Z,11.77
2023-02-03T01:42:15.174Z,12.05
2023-02-03T01:44:52.015Z,10.42
2023-02-03T01:47:27.787Z,11.87
2023-02-03T01:50:09.132Z,11.23
2023-02-03T01:52:37.728Z,10.97
2023-02-03T01:55:07.590Z,11.75
2023-02-03T01:57:39.895Z,11.80
2023-02-03T02:00:08.003Z,12.25
2023-02-03T02:02:34.426Z,11.18
2023-02-03T02:05:14.678Z,11.64
2023-02-03T02:07:42.639Z,11.69
2023-02-03T02:10:09.904Z,11.96
2023-02-03T02:12:36.430Z,11.23
2023-02-03T02:15:03.851Z,11.64
2023-02-03T02:17:39.350Z,12.10
2023-02-03T02:20:05.637Z,12.07
2023-02-03T02:22:50.702Z,12.16
2023-02-03T02:25:26.140Z,11.97
2023-02-03T02:28:03.994Z,12.11
2023-02-03T02:30:49.715Z,11.24
2023-02-03T02:33:40.962Z,12.23
2023-02-03T02:36:07.329Z,12.05
2023-02-03T02:38:48.223Z,12.14
2023-02-03T02:41:52.371Z,12.07
2023-02-03T02:44:35.329Z,12.12
2023-02-03T02:47:11.128Z,11.82
2023-02-03T02:49:44.613Z,11.83
2023-02-03T02:52:14.867Z,11.71
2023-02-03T02:54:46.898Z,11.63
2023-02-03T02:57:16.105Z,11.84
2023-02-03T02:59:42.659Z,11.34
2023-02-03T03:02:11.699Z,11.90
2023-02-03T03:04:38.677Z,11.89
2023-02-03T03:07:11.880Z,11.98
2023-02-03T03:09:50.547Z,11.97
2023-02-03T03:12:29.365Z,11.46
2023-02-03T03:15:00.991Z,11.88
2023-02-03T03:17:34.917Z,12.31
2023-02-03T03:20:08.710Z,12.04
2023-02-03T03:22:41.459Z,11.97
2023-02-03T03:25:15.473Z,12.24
2023-02-03T03:27:48.336Z,12.10
2023-02-03T03:30:23.467Z,11.70
2023-02-03T03:32:50.784Z,12.03
2023-02-03T03:35:17.755Z,11.86
2023-02-03T03:37:50.494Z,12.03
2023-02-03T03:40:25.750Z,11.93
2023-02-03T03:43:01.205Z,11.65
2023-02-03T03:45:38.200Z,11.21
2023-02-03T03:48:34.060Z,12.19
2023-02-03T03:51:05.196Z,11.35
2023-02-03T03:53:34.512Z,11.68
2023-02-03T03:56:03.567Z,11.90
2023-02-03T03:58:32.379Z,12.04
2023-02-03T04:01:05.140Z,11.71
2023-02-03T04:03:56.892Z,11.21
2023-02-03T04:06:23.704Z,11.97
2023-02-03T04:08:50.306Z,12.09
2023-02-03T04:11:36.634Z,11.18
2023-02-03T04:14:03.439Z,11.79
2023-02-03T04:16:29.987Z,11.72
2023-02-03T04:18:58.839Z,11.05
2023-02-03T04:21:25.237Z,11.63
2023-02-03T04:23:52.231Z,10.68
2023-02-03T04:26:18.691Z,10.87
2023-02-03T04:28:45.123Z,11.48
2023-02-03T04:31:11.694Z,11.29
2023-02-03T04:33:38.104Z,11.95
2023-02-03T04:36:04.700Z,11.93
2023-02-03T04:38:31.100Z,11.21
2023-02-03T04:40:57.540Z,11.81
2023-02-03T04:43:23.940Z,11.10
2023-02-03T04:45:50.606Z,11.40
2023-02-03T04:48:17.038Z,11.87
2023-02-03T04:50:43.452Z,11.55
2023-02-03T04:53:09.788Z,11.59
2023-02-03T04:55:36.166Z,11.20
2023-02-03T04:58:02.708Z,10.93
2023-02-03T05:00:29.764Z,11.44
2023-02-03T05:02:56.373Z,11.71
2023-02-03T05:05:22.777Z,11.33
2023-02-03T05:07:49.171Z,11.33
2023-02-03T05:10:23.526Z,11.40
2023-02-03T05:12:50.019Z,12.04
2023-02-03T05:15:16.425Z,11.89
2023-02-03T05:17:42.850Z,11.40
2023-02-03T05:20:10.141Z,11.41
2023-02-03T05:22:36.594Z,11.60
2023-02-03T05:25:04.015Z,12.11
2023-02-03T05:27:30.703Z,11.83
2023-02-03T05:29:57.180Z,11.35
2023-02-03T05:32:23.536Z,12.10
2023-02-03T05:34:49.927Z,12.00
2023-02-03T05:37:16.445Z,12.12
2023-02-03T05:39:43.116Z,11.27
2023-02-03T05:42:09.467Z,11.15
2023-02-03T05:44:40.006Z,11.80
2023-02-03T05:47:06.369Z,11.22
2023-02-03T05:49:32.829Z,11.16
2023-02-03T05:51:59.472Z,11.35
2023-02-03T05:54:25.905Z,11.32
2023-02-03T05:56:52.567Z,11.32
2023-02-03T05:59:18.935Z,11.73
2023-02-03T06:01:45.303Z,11.67
2023-02-03T06:04:11.973Z,11.79
2023-02-03T06:06:38.462Z,12.05
2023-02-03T06:09:07.755Z,12.11
2023-02-03T06:11:35.873Z,11.74
2023-02-03T06:14:02.802Z,11.80
2023-02-03T06:16:29.580Z,11.90
2023-02-03T06:19:00.773Z,12.12
2023-02-03T06:21:28.312Z,12.04
2023-02-03T06:23:55.861Z,12.00
2023-02-03T06:26:22.305Z,11.36
2023-02-03T06:28:48.736Z,11.54
2023-02-03T06:31:15.352Z,11.29
2023-02-03T06:33:41.844Z,12.10
2023-02-03T06:36:08.633Z,11.43
2023-02-03T06:38:34.989Z,11.41
2023-02-03T06:41:01.409Z,11.50
2023-02-03T06:43:30.272Z,11.74
2023-02-03T06:45:56.625Z,11.93
2023-02-03T06:48:23.739Z,11.94
2023-02-03T06:50:50.747Z,12.03
2023-02-03T06:53:17.294Z,11.96
2023-02-03T06:55:43.652Z,11.95
2023-02-03T06:58:09.989Z,11.37
2023-02-03T07:00:36.450Z,11.41
2023-02-03T07:03:03.069Z,11.56
2023-02-03T07:05:29.890Z,11.69
2023-02-03T07:07:56.386Z,11.71
2023-02-03T07:10:23.159Z,11.83
2023-02-03T07:12:50.708Z,11.91
2023-02-03T07:15:17.850Z,11.46
2023-02-03T07:17:44.253Z,12.15
2023-02-03T07:20:11.151Z,12.17
2023-02-03T07:22:38.625Z,11.91
2023-02-03T07:25:05.354Z,12.06
2023-02-03T07:27:31.697Z,12.14
2023-02-03T07:29:58.059Z,11.89
2023-02-03T07:32:24.409Z,11.51
2023-02-03T07:34:50.732Z,11.72
2023-02-03T07:37:17.113Z,11.97
2023-02-03T07:39:43.521Z,12.27
2023-02-03T07:42:09.925Z,11.69
2023-02-03T07:44:36.289Z,12.27
2023-02-03T07:47:02.673Z,11.26
2023-02-03T07:49:29.003Z,11.44
2023-02-03T07:51:56.433Z,11.70
2023-02-03T07:54:22.774Z,11.18
2023-02-03T07:56:49.176Z,11.41
2023-02-03T07:59:16.969Z,11.64
2023-02-03T08:01:43.370Z,11.89
2023-02-03T08:04:12.023Z,12.23
2023-02-03T08:06:38.362Z,12.27
2023-02-03T08:09:04.807Z,11.90
2023-02-03T08:11:32.491Z,12.27
2023-02-03T08:13:58.861Z,12.08
2023-02-03T08:16:25.273Z,11.84
2023-02-03T08:18:52.142Z,11.96
2023-02-03T08:21:18.759Z,11.66
2023-02-03T08:23:45.078Z,12.15
2023-02-03T08:26:11.418Z,12.24
2023-02-03T08:28:37.887Z,11.96
2023-02-03T08:31:11.117Z,12.28
2023-02-03T08:33:37.695Z,11.85
2023-02-03T08:36:05.747Z,12.16
2023-02-03T08:38:32.557Z,12.09
2023-02-03T08:40:59.108Z,12.22
2023-02-03T08:43:25.488Z,12.06
2023-02-03T08:45:52.111Z,11.58
2023-02-03T08:48:18.518Z,12.13
2023-02-03T08:50:51.810Z,11.75
2023-02-03T08:53:18.680Z,12.13
2023-02-03T08:55:45.022Z,11.84
2023-02-03T08:58:11.379Z,11.99
2023-02-03T09:00:37.814Z,11.81
2023-02-03T09:03:04.245Z,12.08
2023-02-03T09:05:31.617Z,12.08
2023-02-03T09:07:58.250Z,11.87
2023-02-03T09:10:24.711Z,12.06
2023-02-03T09:12:51.333Z,11.57
2023-02-03T09:15:17.837Z,11.79
2023-02-03T09:17:44.279Z,11.28
2023-02-03T09:20:13.172Z,11.84
2023-02-03T09:22:39.677Z,11.61
2023-02-03T09:25:07.390Z,11.39
2023-02-03T09:27:33.738Z,11.57
2023-02-03T09:30:00.089Z,11.82
2023-02-03T09:32:26.520Z,12.05
2023-02-03T09:34:52.874Z,11.60
2023-02-03T09:37:19.385Z,12.22
2023-02-03T09:39:45.804Z,12.01
2023-02-03T09:42:28.691Z,11.91
2023-02-03T09:45:07.010Z,11.53
2023-02-03T09:47:38.260Z,11.76
2023-02-03T09:50:11.777Z,11.43
2023-02-03T09:52:40.865Z,11.00
2023-02-03T09:55:20.561Z,12.08
2023-02-03T09:57:57.092Z,12.13
2023-02-03T10:00:31.260Z,11.77
2023-02-03T10:03:23.140Z,11.81
2023-02-03T10:05:57.769Z,12.22
2023-02-03T10:08:51.365Z,11.97
2023-02-03T10:11:49.552Z,11.83
2023-02-03T10:14:42.728Z,11.32
2023-02-03T10:17:26.450Z,11.84
2023-02-03T10:20:01.311Z,11.79
2023-02-03T10:22:30.751Z,11.09
2023-02-03T10:25:07.245Z,11.05
2023-02-03T10:27:35.227Z,11.35
2023-02-03T10:30:17.078Z,10.73
2023-02-03T10:32:43.465Z,11.63
2023-02-03T10:35:13.983Z,10.79
2023-02-03T10:37:48.135Z,11.55
2023-02-03T10:40:16.856Z,11.56
2023-02-03T10:43:15.404Z,10.57
2023-02-03T10:45:41.864Z,11.32
2023-02-03T10:48:15.963Z,11.52
2023-02-03T10:50:47.915Z,12.13
2023-02-03T10:53:40.622Z,11.85
2023-02-03T10:56:13.059Z,11.35
2023-02-03T10:58:46.335Z,11.42
2023-02-03T11:01:15.056Z,11.98
2023-02-03T11:03:44.161Z,11.55
2023-02-03T11:06:16.115Z,12.20
2023-02-03T11:08:46.445Z,11.74
2023-02-03T11:11:25.456Z,12.11
2023-02-03T11:14:13.044Z,11.99
2023-02-03T11:16:41.183Z,11.73
2023-02-03T11:19:19.959Z,11.65
2023-02-03T11:21:50.377Z,12.10
2023-02-03T11:24:32.898Z,12.12
2023-02-03T11:27:07.543Z,12.21
2023-02-03T11:29:37.535Z,12.03
2023-02-03T11:32:18.083Z,11.93
2023-02-03T11:34:57.541Z,12.10
2023-02-03T11:37:31.650Z,12.17
2023-02-03T11:40:26.570Z,12.42
2023-02-03T11:42:53.151Z,12.60
2023-02-03T11:45:29.059Z,12.16
2023-02-03T11:48:06.236Z,12.36
2023-02-03T11:50:51.552Z,12.65
2023-02-03T11:53:57.296Z,11.86
2023-02-03T11:56:50.668Z,11.94
2023-02-03T11:59:35.721Z,12.30
2023-02-03T12:02:22.854Z,12.38
2023-02-03T12:05:11.202Z,12.32
2023-02-03T12:08:15.522Z,12.66
2023-02-03T12:11:14.779Z,12.44
2023-02-03T12:14:00.883Z,12.50
2023-02-03T12:16:52.201Z,12.57
2023-02-03T12:19:27.105Z,12.58
2023-02-03T12:22:14.145Z,12.37
2023-02-03T12:28:54.918Z,12.66
2023-02-03T12:31:39.426Z,12.67
2023-02-03T12:34:22.285Z,13.02
2023-02-03T12:36:58.740Z,13.00
2023-02-03T12:39:51.675Z,12.50
2023-02-03T12:42:51.224Z,12.89
2023-02-03T12:45:33.745Z,12.59
2023-02-03T12:48:19.002Z,12.34
2023-02-03T12:50:52.125Z,12.95
2023-02-03T12:53:31.036Z,11.90
2023-02-03T12:56:06.637Z,12.45
2023-02-03T12:58:47.488Z,12.84
2023-02-03T13:01:30.351Z,12.91
2023-02-03T13:04:16.788Z,12.12
2023-02-03T13:07:21.230Z,12.58
2023-02-03T13:09:56.636Z,13.16
2023-02-03T13:12:37.369Z,12.95
2023-02-03T13:15:22.346Z,12.32
2023-02-03T13:17:55.622Z,12.90
2023-02-03T13:20:24.839Z,12.64
2023-02-03T13:22:53.277Z,13.05
2023-02-03T13:25:28.620Z,12.96
2023-02-03T13:28:13.796Z,13.21
2023-02-03T13:30:59.020Z,13.24
2023-02-03T13:33:36.255Z,13.39
2023-02-03T13:36:18.237Z,12.45
2023-02-03T13:39:09.341Z,13.28
2023-02-03T13:41:39.595Z,13.03
2023-02-03T13:44:13.693Z,11.97
2023-02-03T13:46:43.045Z,12.63
2023-02-03T13:49:10.101Z,12.53
2023-02-03T13:51:45.619Z,12.79
2023-02-03T13:54:26.593Z,12.18
2023-02-03T13:57:01.327Z,13.31
2023-02-03T13:59:42.423Z,12.80
2023-02-03T14:02:24.429Z,12.99
2023-02-03T14:04:54.548Z,12.80
2023-02-03T14:07:24.619Z,13.37
2023-02-03T14:10:12.316Z,12.87
2023-02-03T14:13:05.406Z,12.88
2023-02-03T14:15:33.415Z,13.05
2023-02-03T14:18:01.529Z,13.40
2023-02-03T14:20:27.866Z,13.33
2023-02-03T14:23:06.592Z,13.10
2023-02-03T14:25:39.495Z,13.29
2023-02-03T14:28:10.668Z,13.40
2023-02-03T14:31:06.529Z,13.02
2023-02-03T14:33:49.419Z,13.33
2023-02-03T14:36:29.902Z,13.07
2023-02-03T14:38:59.958Z,13.15
2023-02-03T14:41:31.080Z,13.23
2023-02-03T14:44:16.679Z,13.44
2023-02-03T14:47:10.088Z,13.84
2023-02-03T14:49:45.620Z,13.27
2023-02-03T14:52:33.231Z,13.71
2023-02-03T14:55:14.406Z,13.40
2023-02-03T14:57:49.038Z,13.06
2023-02-03T15:00:26.118Z,13.51
2023-02-03T15:03:10.349Z,13.46
2023-02-03T15:05:45.545Z,13.28
2023-02-03T15:08:36.937Z,13.23
2023-02-03T15:11:28.606Z,13.55
2023-02-03T15:13:57.351Z,13.24
2023-02-03T15:16:25.177Z,13.06
2023-02-03T15:19:00.537Z,13.38
2023-02-03T15:21:27.029Z,12.96
2023-02-03T15:23:54.024Z,12.91
2023-02-03T15:26:25.763Z,12.82
2023-02-03T15:29:00.771Z,13.24
2023-02-03T15:31:37.174Z,13.06
2023-02-03T15:34:17.437Z,13.08
2023-02-03T15:36:48.647Z,12.88
2023-02-03T15:39:23.051Z,12.65
2023-02-03T15:41:54.664Z,12.89
2023-02-03T15:44:41.096Z,12.29
2023-02-03T15:47:21.148Z,12.69
2023-02-03T15:49:58.833Z,12.61
2023-02-03T15:52:28.981Z,12.20
2023-02-03T15:55:09.956Z,12.32
2023-02-03T15:57:37.442Z,12.73
2023-02-03T16:00:28.771Z,12.69
2023-02-03T16:02:57.942Z,12.36
2023-02-03T16:05:28.327Z,12.45
2023-02-03T16:07:55.670Z,11.80
2023-02-03T16:10:31.689Z,12.55
2023-02-03T16:13:23.989Z,12.63
2023-02-03T16:16:08.288Z,12.50
2023-02-03T16:18:36.900Z,12.18
2023-02-03T16:21:05.283Z,12.59
2023-02-03T16:23:32.113Z,12.40
2023-02-03T16:26:02.298Z,12.09
2023-02-03T16:28:47.060Z,12.60
2023-02-03T16:31:35.271Z,12.13
2023-02-03T16:34:30.924Z,12.04
2023-02-03T16:37:17.187Z,11.77
2023-02-03T16:40:02.038Z,12.04
2023-02-03T16:42:56.494Z,11.68
2023-02-03T16:45:42.280Z,11.97
2023-02-03T16:48:29.683Z,11.79
2023-02-03T16:50:59.335Z,11.87
2023-02-03T16:53:28.121Z,11.74
2023-02-03T16:55:57.579Z,11.96
2023-02-03T16:58:24.498Z,11.61
2023-02-03T17:00:52.827Z,11.58
2023-02-03T17:03:24.291Z,11.04
2023-02-03T17:05:51.751Z,12.07
2023-02-03T17:08:20.931Z,11.98
2023-02-03T17:10:50.601Z,11.92
2023-02-03T17:13:19.633Z,11.67
2023-02-03T17:15:49.779Z,11.49
2023-02-03T17:18:16.580Z,11.77
2023-02-03T17:20:44.469Z,11.68
2023-02-03T17:23:12.162Z,11.25
2023-02-03T17:25:39.608Z,11.85
2023-02-03T17:28:08.223Z,11.80
2023-02-03T17:30:35.615Z,10.89
2023-02-03T17:33:03.662Z,11.54
2023-02-03T17:35:30.411Z,10.65
2023-02-03T17:37:57.162Z,11.69
2023-02-03T17:54:10.388Z,11.87
2023-02-03T17:56:36.936Z,12.01
2023-02-03T17:59:05.655Z,11.21
2023-02-03T18:01:32.357Z,11.65
2023-02-03T18:04:03.549Z,11.61
2023-02-03T18:06:32.019Z,11.84
2023-02-03T18:09:01.283Z,11.78
2023-02-03T18:11:29.013Z,11.90
2023-02-03T18:13:56.180Z,11.73
2023-02-03T18:16:28.803Z,11.26
2023-02-03T18:18:56.540Z,12.00
2023-02-03T18:21:24.651Z,12.20
2023-02-03T18:23:51.533Z,11.94
2023-02-03T18:26:19.716Z,12.06
2023-02-03T18:28:46.663Z,11.89
2023-02-03T18:31:15.752Z,11.55
2023-02-03T18:33:44.254Z,12.11
2023-02-03T18:36:12.671Z,11.64
2023-02-03T18:38:40.280Z,12.24
2023-02-03T18:41:19.014Z,12.40
2023-02-03T18:43:46.746Z,11.82
2023-02-03T18:46:17.371Z,12.45
2023-02-03T18:48:52.389Z,11.97
2023-02-03T18:51:21.132Z,12.21
2023-02-03T18:53:51.574Z,11.91
2023-02-03T18:56:24.973Z,11.87
2023-02-03T18:58:51.611Z,11.46
2023-02-03T19:01:29.220Z,12.37
2023-02-03T19:03:57.127Z,12.15
2023-02-03T19:06:24.695Z,12.23
2023-02-03T19:08:51.558Z,11.65
2023-02-03T19:11:19.901Z,12.13
2023-02-03T19:13:46.403Z,11.49
2023-02-03T19:16:16.562Z,11.61
2023-02-03T19:18:44.927Z,12.33
2023-02-03T19:21:12.691Z,12.54
2023-02-03T19:23:40.948Z,11.71
2023-02-03T19:26:07.758Z,12.13
2023-02-03T19:28:35.446Z,11.59
2023-02-03T19:31:07.905Z,12.34
2023-02-03T19:33:34.657Z,12.23
2023-02-03T19:36:01.072Z,12.17
2023-02-03T19:38:27.446Z,11.52
2023-02-03T19:40:53.916Z,12.22
2023-02-03T19:43:20.301Z,12.20
2023-02-03T19:45:46.847Z,12.15
2023-02-03T19:48:13.316Z,12.15
2023-02-03T19:50:40.851Z,11.67
2023-02-03T19:53:09.398Z,12.43
2023-02-03T19:55:35.739Z,11.73
2023-02-03T19:58:02.496Z,12.19
2023-02-03T20:00:29.164Z,11.99
2023-02-03T20:02:55.816Z,11.60
2023-02-03T20:05:22.407Z,11.91
2023-02-03T20:07:48.844Z,12.32
2023-02-03T20:10:15.508Z,12.30
2023-02-03T20:12:41.867Z,12.24
2023-02-03T20:15:08.275Z,12.25
2023-02-03T20:17:34.649Z,12.04
2023-02-03T20:20:01.158Z,12.36
2023-02-03T20:22:27.617Z,12.49
2023-02-03T20:24:53.996Z,12.23
2023-02-03T20:27:20.594Z,11.86
2023-02-03T20:29:48.662Z,12.01
2023-02-03T20:32:15.307Z,11.52
2023-02-03T20:34:41.646Z,12.48
2023-02-03T20:37:08.453Z,12.05
2023-02-03T20:39:34.979Z,11.97
2023-02-03T20:42:01.387Z,11.87
2023-02-03T20:44:27.896Z,12.09
2023-02-03T20:46:55.755Z,11.87
2023-02-03T20:49:22.266Z,12.05
2023-02-03T20:51:48.623Z,12.00
2023-02-03T20:54:18.714Z,12.31
2023-02-03T20:56:45.673Z,12.10
2023-02-03T20:59:15.079Z,12.08
2023-02-03T21:01:41.621Z,11.74
2023-02-03T21:04:34.023Z,12.03
2023-02-03T21:07:01.419Z,11.46
2023-02-03T21:09:27.929Z,12.15
2023-02-03T21:11:55.390Z,12.37
2023-02-03T21:14:25.303Z,11.31
2023-02-03T21:16:53.960Z,12.11
2023-02-03T21:19:33.051Z,11.77
2023-02-03T21:22:04.052Z,11.66
2023-02-03T21:24:35.594Z,12.00
2023-02-03T21:27:02.361Z,11.73
2023-02-03T21:29:33.779Z,12.05
2023-02-03T21:32:00.358Z,11.99
2023-02-03T21:34:34.877Z,11.64
2023-02-03T21:37:12.295Z,12.01
2023-02-03T21:39:38.628Z,12.05
2023-02-03T21:42:40.774Z,12.00
2023-02-03T21:45:24.814Z,11.96
2023-02-03T21:47:52.488Z,12.20
2023-02-03T21:50:33.643Z,12.17
2023-02-03T21:53:09.969Z,12.37
2023-02-03T21:55:38.172Z,12.17
2023-02-03T21:58:31.640Z,11.89
2023-02-03T22:00:59.950Z,11.85
2023-02-03T22:03:40.593Z,12.01
2023-02-03T22:06:13.575Z,11.99
2023-02-03T22:08:43.386Z,11.90
2023-02-03T22:11:09.857Z,11.47
2023-02-03T22:13:36.635Z,11.88
2023-02-03T22:16:03.923Z,11.54
2023-02-03T22:18:30.849Z,11.53
2023-02-03T22:20:57.341Z,11.41
2023-02-03T22:23:23.927Z,11.55
2023-02-03T22:26:40.060Z,11.56
2023-02-03T22:29:11.087Z,10.91
2023-02-03T22:31:37.628Z,10.53
2023-02-03T22:34:06.796Z,10.72
2023-02-03T22:36:33.234Z,11.43
2023-02-03T22:39:01.319Z,11.50
2023-02-03T22:41:37.425Z,11.04
2023-02-03T22:44:03.831Z,10.63
2023-02-03T22:46:38.384Z,11.14
2023-02-03T22:49:04.822Z,11.29
2023-02-03T22:51:31.155Z,11.02
2023-02-03T22:53:57.541Z,11.85
2023-02-03T22:56:23.889Z,10.53
2023-02-03T22:58:50.251Z,11.32
2023-02-03T23:01:16.638Z,11.01
2023-02-03T23:03:43.058Z,10.93
2023-02-03T23:06:09.375Z,10.92
2023-02-03T23:08:35.751Z,11.53
2023-02-03T23:11:02.672Z,11.08
2023-02-03T23:13:29.132Z,11.86
2023-02-03T23:15:55.555Z,11.63
2023-02-03T23:18:21.963Z,11.59
2023-02-03T23:20:48.279Z,11.10
2023-02-03T23:23:14.632Z,10.83
2023-02-03T23:25:40.963Z,11.37
2023-02-03T23:28:07.418Z,11.05
2023-02-03T23:30:34.109Z,11.21
2023-02-03T23:33:00.506Z,11.14
2023-02-03T23:35:45.179Z,11.08
2023-02-03T23:38:12.258Z,11.41
2023-02-03T23:40:38.604Z,11.17
2023-02-03T23:43:04.979Z,10.67
2023-02-03T23:45:31.386Z,10.84
2023-02-03T23:47:57.909Z,11.19
2023-02-03T23:50:24.244Z,11.44
2023-02-03T23:52:50.611Z,11.34
2023-02-03T23:55:19.218Z,11.59
2023-02-03T23:57:45.835Z,11.44
